sensor_id;sensor_type;location;lat;lon;timestamp;temperature;humidity
7530;DHT22;3806;52.270;10.544;2023-07-13T00:00:23;21.20;88.00
7530;DHT22;3806;52.270;10.544;2023-07-13T00:02:49;21.20;88.20
7530;DHT22;3806;52.270;10.544;2023-07-13T00:05:15;21.20;88.50
7530;DHT22;3806;52.270;10.544;2023-07-13T00:07:40;21.10;89.00
7530;DHT22;3806;52.270;10.544;2023-07-13T00:10:06;21.10;89.40
7530;DHT22;3806;52.270;10.544;2023-07-13T00:12:34;21.10;89.80
7530;DHT22;3806;52.270;10.544;2023-07-13T00:15:04;21.10;90.10
7530;DHT22;3806;52.270;10.544;2023-07-13T00:17:30;21.00;90.30
7530;DHT22;3806;52.270;10.544;2023-07-13T00:19:56;21.00;90.50
7530;DHT22;3806;52.270;10.544;2023-07-13T00:22:22;21.00;90.70
7530;DHT22;3806;52.270;10.544;2023-07-13T00:24:51;21.00;90.80
7530;DHT22;3806;52.270;10.544;2023-07-13T00:27:17;20.90;90.90
7530;DHT22;3806;52.270;10.544;2023-07-13T00:29:43;20.90;91.00
7530;DHT22;3806;52.270;10.544;2023-07-13T00:32:10;20.90;91.10
7530;DHT22;3806;52.270;10.544;2023-07-13T00:34:37;20.90;91.20
7530;DHT22;3806;52.270;10.544;2023-07-13T00:37:04;20.80;91.30
7530;DHT22;3806;52.270;10.544;2023-07-13T00:39:32;20.80;91.40
7530;DHT22;3806;52.270;10.544;2023-07-13T00:41:57;20.80;91.50
7530;DHT22;3806;52.270;10.544;2023-07-13T00:44:23;20.70;91.60
7530;DHT22;3806;52.270;10.544;2023-07-13T00:46:49;20.70;91.90
7530;DHT22;3806;52.270;10.544;2023-07-13T00:49:19;20.70;92.10
7530;DHT22;3806;52.270;10.544;2023-07-13T00:51:49;20.60;92.20
7530;DHT22;3806;52.270;10.544;2023-07-13T00:54:20;20.60;92.30
7530;DHT22;3806;52.270;10.544;2023-07-13T00:56:48;20.60;92.50
7530;DHT22;3806;52.270;10.544;2023-07-13T00:59:15;20.60;92.60
7530;DHT22;3806;52.270;10.544;2023-07-13T01:01:41;20.60;92.80
7530;DHT22;3806;52.270;10.544;2023-07-13T01:04:07;20.60;92.80
7530;DHT22;3806;52.270;10.544;2023-07-13T01:06:35;20.60;92.80
7530;DHT22;3806;52.270;10.544;2023-07-13T01:09:01;20.60;92.90
7530;DHT22;3806;52.270;10.544;2023-07-13T01:11:27;20.60;93.00
7530;DHT22;3806;52.270;10.544;2023-07-13T01:13:52;20.60;93.00
7530;DHT22;3806;52.270;10.544;2023-07-13T01:16:25;20.60;93.00
7530;DHT22;3806;52.270;10.544;2023-07-13T01:18:51;20.60;93.00
7530;DHT22;3806;52.270;10.544;2023-07-13T01:21:17;20.60;93.00
7530;DHT22;3806;52.270;10.544;2023-07-13T01:23:44;20.70;93.00
7530;DHT22;3806;52.270;10.544;2023-07-13T01:26:10;20.60;92.90
7530;DHT22;3806;52.270;10.544;2023-07-13T01:28:37;20.60;92.90
7530;DHT22;3806;52.270;10.544;2023-07-13T01:31:03;20.60;93.00
7530;DHT22;3806;52.270;10.544;2023-07-13T01:33:28;20.60;93.00
7530;DHT22;3806;52.270;10.544;2023-07-13T01:35:54;20.60;93.10
7530;DHT22;3806;52.270;10.544;2023-07-13T01:38:23;20.60;93.20
7530;DHT22;3806;52.270;10.544;2023-07-13T01:40:50;20.60;93.30
7530;DHT22;3806;52.270;10.544;2023-07-13T01:43:16;20.50;93.20
7530;DHT22;3806;52.270;10.544;2023-07-13T01:45:42;20.50;93.30
7530;DHT22;3806;52.270;10.544;2023-07-13T01:48:09;20.50;93.50
7530;DHT22;3806;52.270;10.544;2023-07-13T01:50:35;20.40;93.80
7530;DHT22;3806;52.270;10.544;2023-07-13T01:53:01;20.30;94.10
7530;DHT22;3806;52.270;10.544;2023-07-13T01:55:27;20.20;94.50
7530;DHT22;3806;52.270;10.544;2023-07-13T01:57:53;20.10;94.80
7530;DHT22;3806;52.270;10.544;2023-07-13T02:00:19;20.10;95.10
7530;DHT22;3806;52.270;10.544;2023-07-13T02:02:44;20.00;95.40
7530;DHT22;3806;52.270;10.544;2023-07-13T02:05:11;19.90;95.50
7530;DHT22;3806;52.270;10.544;2023-07-13T02:07:37;20.00;95.70
7530;DHT22;3806;52.270;10.544;2023-07-13T02:10:03;19.90;95.70
7530;DHT22;3806;52.270;10.544;2023-07-13T02:12:28;20.00;95.80
7530;DHT22;3806;52.270;10.544;2023-07-13T02:14:54;19.90;95.80
7530;DHT22;3806;52.270;10.544;2023-07-13T02:17:19;20.00;95.90
7530;DHT22;3806;52.270;10.544;2023-07-13T02:19:46;20.00;95.90
7530;DHT22;3806;52.270;10.544;2023-07-13T02:22:11;20.00;95.90
7530;DHT22;3806;52.270;10.544;2023-07-13T02:24:37;20.00;95.90
7530;DHT22;3806;52.270;10.544;2023-07-13T02:27:03;20.00;95.90
7530;DHT22;3806;52.270;10.544;2023-07-13T02:29:29;20.00;96.00
7530;DHT22;3806;52.270;10.544;2023-07-13T02:31:54;20.00;96.10
7530;DHT22;3806;52.270;10.544;2023-07-13T02:34:20;19.90;96.10
7530;DHT22;3806;52.270;10.544;2023-07-13T02:36:45;19.90;96.30
7530;DHT22;3806;52.270;10.544;2023-07-13T02:39:13;19.90;96.40
7530;DHT22;3806;52.270;10.544;2023-07-13T02:41:38;19.90;96.50
7530;DHT22;3806;52.270;10.544;2023-07-13T02:44:04;19.90;96.60
7530;DHT22;3806;52.270;10.544;2023-07-13T02:46:31;19.90;96.70
7530;DHT22;3806;52.270;10.544;2023-07-13T02:48:56;19.90;96.70
7530;DHT22;3806;52.270;10.544;2023-07-13T02:51:22;19.90;96.90
7530;DHT22;3806;52.270;10.544;2023-07-13T02:53:47;19.90;96.90
7530;DHT22;3806;52.270;10.544;2023-07-13T02:56:13;19.80;96.80
7530;DHT22;3806;52.270;10.544;2023-07-13T02:58:38;19.90;96.80
7530;DHT22;3806;52.270;10.544;2023-07-13T03:01:08;19.80;96.90
7530;DHT22;3806;52.270;10.544;2023-07-13T03:03:34;19.80;96.90
7530;DHT22;3806;52.270;10.544;2023-07-13T03:06:02;19.80;97.00
7530;DHT22;3806;52.270;10.544;2023-07-13T03:08:28;19.80;97.10
7530;DHT22;3806;52.270;10.544;2023-07-13T03:11:06;19.80;97.10
7530;DHT22;3806;52.270;10.544;2023-07-13T03:13:33;19.90;97.10
7530;DHT22;3806;52.270;10.544;2023-07-13T03:15:58;19.80;97.10
7530;DHT22;3806;52.270;10.544;2023-07-13T03:18:27;19.80;97.30
7530;DHT22;3806;52.270;10.544;2023-07-13T03:20:52;19.80;97.30
7530;DHT22;3806;52.270;10.544;2023-07-13T03:23:19;19.70;97.30
7530;DHT22;3806;52.270;10.544;2023-07-13T03:25:45;19.70;97.40
7530;DHT22;3806;52.270;10.544;2023-07-13T03:28:11;19.70;97.30
7530;DHT22;3806;52.270;10.544;2023-07-13T03:30:37;19.60;97.30
7530;DHT22;3806;52.270;10.544;2023-07-13T03:33:03;19.60;97.30
7530;DHT22;3806;52.270;10.544;2023-07-13T03:35:29;19.60;97.20
7530;DHT22;3806;52.270;10.544;2023-07-13T03:37:54;19.60;97.10
7530;DHT22;3806;52.270;10.544;2023-07-13T03:40:20;19.60;96.80
7530;DHT22;3806;52.270;10.544;2023-07-13T03:42:46;19.70;96.60
7530;DHT22;3806;52.270;10.544;2023-07-13T03:45:12;19.70;96.70
7530;DHT22;3806;52.270;10.544;2023-07-13T03:47:37;19.70;96.20
7530;DHT22;3806;52.270;10.544;2023-07-13T03:50:03;19.70;96.00
7530;DHT22;3806;52.270;10.544;2023-07-13T03:52:29;19.70;95.80
7530;DHT22;3806;52.270;10.544;2023-07-13T03:54:54;19.70;95.80
7530;DHT22;3806;52.270;10.544;2023-07-13T03:57:20;19.80;95.80
7530;DHT22;3806;52.270;10.544;2023-07-13T03:59:45;19.80;95.70
7530;DHT22;3806;52.270;10.544;2023-07-13T04:02:11;19.80;95.70
7530;DHT22;3806;52.270;10.544;2023-07-13T04:04:36;19.90;95.70
7530;DHT22;3806;52.270;10.544;2023-07-13T04:07:06;19.90;95.60
7530;DHT22;3806;52.270;10.544;2023-07-13T04:09:32;19.90;95.50
7530;DHT22;3806;52.270;10.544;2023-07-13T04:11:58;20.00;95.40
7530;DHT22;3806;52.270;10.544;2023-07-13T04:14:23;20.00;95.30
7530;DHT22;3806;52.270;10.544;2023-07-13T04:16:48;20.00;95.30
7530;DHT22;3806;52.270;10.544;2023-07-13T04:19:14;19.90;95.30
7530;DHT22;3806;52.270;10.544;2023-07-13T04:21:40;20.00;95.30
7530;DHT22;3806;52.270;10.544;2023-07-13T04:24:05;20.00;95.30
7530;DHT22;3806;52.270;10.544;2023-07-13T04:26:31;20.00;95.30
7530;DHT22;3806;52.270;10.544;2023-07-13T04:28:57;20.10;95.30
7530;DHT22;3806;52.270;10.544;2023-07-13T04:31:23;20.20;95.30
7530;DHT22;3806;52.270;10.544;2023-07-13T04:33:49;20.30;95.10
7530;DHT22;3806;52.270;10.544;2023-07-13T04:36:16;20.60;94.80
7530;DHT22;3806;52.270;10.544;2023-07-13T04:38:42;20.90;94.30
7530;DHT22;3806;52.270;10.544;2023-07-13T04:41:08;21.30;93.70
7530;DHT22;3806;52.270;10.544;2023-07-13T04:43:34;21.50;93.00
7530;DHT22;3806;52.270;10.544;2023-07-13T04:46:04;21.60;92.30
7530;DHT22;3806;52.270;10.544;2023-07-13T04:48:31;21.90;92.10
7530;DHT22;3806;52.270;10.544;2023-07-13T04:50:57;22.50;91.40
7530;DHT22;3806;52.270;10.544;2023-07-13T04:53:23;23.00;90.30
7530;DHT22;3806;52.270;10.544;2023-07-13T04:55:49;23.60;88.10
7530;DHT22;3806;52.270;10.544;2023-07-13T04:58:15;24.20;85.10
7530;DHT22;3806;52.270;10.544;2023-07-13T05:00:40;24.90;82.00
7530;DHT22;3806;52.270;10.544;2023-07-13T05:03:06;25.50;78.50
7530;DHT22;3806;52.270;10.544;2023-07-13T05:05:31;26.00;74.80
7530;DHT22;3806;52.270;10.544;2023-07-13T05:07:57;26.30;72.00
7530;DHT22;3806;52.270;10.544;2023-07-13T05:10:22;26.40;69.60
7530;DHT22;3806;52.270;10.544;2023-07-13T05:12:48;26.20;69.00
7530;DHT22;3806;52.270;10.544;2023-07-13T05:15:14;26.10;68.80
7530;DHT22;3806;52.270;10.544;2023-07-13T05:17:39;26.00;68.50
7530;DHT22;3806;52.270;10.544;2023-07-13T05:20:07;25.80;68.20
7530;DHT22;3806;52.270;10.544;2023-07-13T05:22:33;25.40;68.60
7530;DHT22;3806;52.270;10.544;2023-07-13T05:25:01;25.20;68.50
7530;DHT22;3806;52.270;10.544;2023-07-13T05:27:26;24.90;69.10
7530;DHT22;3806;52.270;10.544;2023-07-13T05:29:51;24.90;70.00
7530;DHT22;3806;52.270;10.544;2023-07-13T05:32:18;25.20;69.60
7530;DHT22;3806;52.270;10.544;2023-07-13T05:34:43;25.90;67.20
7530;DHT22;3806;52.270;10.544;2023-07-13T05:37:09;27.00;64.90
7530;DHT22;3806;52.270;10.544;2023-07-13T05:39:35;28.10;61.60
7530;DHT22;3806;52.270;10.544;2023-07-13T05:42:02;29.40;57.90
7530;DHT22;3806;52.270;10.544;2023-07-13T05:44:27;30.50;54.00
7530;DHT22;3806;52.270;10.544;2023-07-13T05:46:53;31.60;50.10
7530;DHT22;3806;52.270;10.544;2023-07-13T05:49:20;32.60;47.30
7530;DHT22;3806;52.270;10.544;2023-07-13T05:51:46;33.20;44.20
7530;DHT22;3806;52.270;10.544;2023-07-13T05:54:11;33.50;41.80
7530;DHT22;3806;52.270;10.544;2023-07-13T05:56:37;33.80;41.10
7530;DHT22;3806;52.270;10.544;2023-07-13T05:59:02;34.20;38.60
7530;DHT22;3806;52.270;10.544;2023-07-13T06:01:29;34.70;37.70
7530;DHT22;3806;52.270;10.544;2023-07-13T06:03:56;35.50;36.70
7530;DHT22;3806;52.270;10.544;2023-07-13T06:06:22;35.70;35.60
7530;DHT22;3806;52.270;10.544;2023-07-13T06:08:47;35.60;34.50
7530;DHT22;3806;52.270;10.544;2023-07-13T06:11:18;35.00;34.70
7530;DHT22;3806;52.270;10.544;2023-07-13T06:13:44;34.30;35.30
7530;DHT22;3806;52.270;10.544;2023-07-13T06:16:11;33.80;35.70
7530;DHT22;3806;52.270;10.544;2023-07-13T06:18:37;33.70;35.80
7530;DHT22;3806;52.270;10.544;2023-07-13T06:21:17;32.90;36.50
7530;DHT22;3806;52.270;10.544;2023-07-13T06:23:44;31.80;38.10
7530;DHT22;3806;52.270;10.544;2023-07-13T06:26:10;30.70;39.20
7530;DHT22;3806;52.270;10.544;2023-07-13T06:28:36;29.70;41.10
7530;DHT22;3806;52.270;10.544;2023-07-13T06:31:08;28.80;42.70
7530;DHT22;3806;52.270;10.544;2023-07-13T06:33:34;28.10;44.30
7530;DHT22;3806;52.270;10.544;2023-07-13T06:35:59;27.90;45.00
7530;DHT22;3806;52.270;10.544;2023-07-13T06:38:25;27.80;45.60
7530;DHT22;3806;52.270;10.544;2023-07-13T06:40:50;27.70;46.10
7530;DHT22;3806;52.270;10.544;2023-07-13T06:43:16;27.90;46.30
7530;DHT22;3806;52.270;10.544;2023-07-13T06:45:44;28.10;46.50
7530;DHT22;3806;52.270;10.544;2023-07-13T06:48:15;28.40;46.30
7530;DHT22;3806;52.270;10.544;2023-07-13T06:50:42;28.60;45.80
7530;DHT22;3806;52.270;10.544;2023-07-13T06:53:07;28.60;45.10
7530;DHT22;3806;52.270;10.544;2023-07-13T06:55:33;28.70;45.10
7530;DHT22;3806;52.270;10.544;2023-07-13T06:57:58;28.70;45.10
7530;DHT22;3806;52.270;10.544;2023-07-13T07:00:24;28.80;45.20
7530;DHT22;3806;52.270;10.544;2023-07-13T07:02:49;29.00;44.70
7530;DHT22;3806;52.270;10.544;2023-07-13T07:05:15;29.10;44.70
7530;DHT22;3806;52.270;10.544;2023-07-13T07:07:40;29.20;44.90
7530;DHT22;3806;52.270;10.544;2023-07-13T07:10:06;29.30;45.00
7530;DHT22;3806;52.270;10.544;2023-07-13T07:12:32;29.30;44.90
7530;DHT22;3806;52.270;10.544;2023-07-13T07:14:57;29.20;44.50
7530;DHT22;3806;52.270;10.544;2023-07-13T07:17:23;29.20;44.70
7530;DHT22;3806;52.270;10.544;2023-07-13T07:19:48;29.00;44.90
7530;DHT22;3806;52.270;10.544;2023-07-13T07:22:14;28.80;45.10
7530;DHT22;3806;52.270;10.544;2023-07-13T07:24:39;28.60;45.60
7530;DHT22;3806;52.270;10.544;2023-07-13T07:27:05;28.30;45.90
7530;DHT22;3806;52.270;10.544;2023-07-13T07:29:30;27.90;45.40
7530;DHT22;3806;52.270;10.544;2023-07-13T07:31:56;27.50;45.70
7530;DHT22;3806;52.270;10.544;2023-07-13T07:34:21;27.20;46.70
7530;DHT22;3806;52.270;10.544;2023-07-13T07:36:47;26.90;47.10
7530;DHT22;3806;52.270;10.544;2023-07-13T07:39:12;26.70;47.80
7530;DHT22;3806;52.270;10.544;2023-07-13T07:41:38;26.70;48.30
7530;DHT22;3806;52.270;10.544;2023-07-13T07:44:04;26.70;47.80
7530;DHT22;3806;52.270;10.544;2023-07-13T07:46:30;26.70;47.70
7530;DHT22;3806;52.270;10.544;2023-07-13T07:48:56;26.90;48.00
7530;DHT22;3806;52.270;10.544;2023-07-13T07:51:21;27.10;47.10
7530;DHT22;3806;52.270;10.544;2023-07-13T07:53:47;27.30;46.80
7530;DHT22;3806;52.270;10.544;2023-07-13T07:56:13;27.70;46.70
7530;DHT22;3806;52.270;10.544;2023-07-13T07:58:41;28.00;46.10
7530;DHT22;3806;52.270;10.544;2023-07-13T08:01:07;28.20;44.70
7530;DHT22;3806;52.270;10.544;2023-07-13T08:03:33;28.40;44.20
7530;DHT22;3806;52.270;10.544;2023-07-13T08:05:58;28.50;44.00
7530;DHT22;3806;52.270;10.544;2023-07-13T08:08:25;28.60;43.70
7530;DHT22;3806;52.270;10.544;2023-07-13T08:10:50;28.50;43.80
7530;DHT22;3806;52.270;10.544;2023-07-13T08:13:16;28.40;43.20
7530;DHT22;3806;52.270;10.544;2023-07-13T08:15:41;28.20;43.20
7530;DHT22;3806;52.270;10.544;2023-07-13T08:18:07;28.20;43.60
7530;DHT22;3806;52.270;10.544;2023-07-13T08:20:37;28.40;44.00
7530;DHT22;3806;52.270;10.544;2023-07-13T08:23:03;28.60;42.80
7530;DHT22;3806;52.270;10.544;2023-07-13T08:25:29;28.70;42.20
7530;DHT22;3806;52.270;10.544;2023-07-13T08:27:54;28.60;42.20
7530;DHT22;3806;52.270;10.544;2023-07-13T08:30:20;28.50;42.10
7530;DHT22;3806;52.270;10.544;2023-07-13T08:32:45;28.40;42.70
7530;DHT22;3806;52.270;10.544;2023-07-13T08:35:11;28.50;42.90
7530;DHT22;3806;52.270;10.544;2023-07-13T08:37:37;28.60;42.90
7530;DHT22;3806;52.270;10.544;2023-07-13T08:40:02;28.70;43.10
7530;DHT22;3806;52.270;10.544;2023-07-13T08:42:44;28.80;42.70
7530;DHT22;3806;52.270;10.544;2023-07-13T08:45:22;28.90;42.30
7530;DHT22;3806;52.270;10.544;2023-07-13T08:48:01;29.00;41.80
7530;DHT22;3806;52.270;10.544;2023-07-13T08:50:33;29.00;40.90
7530;DHT22;3806;52.270;10.544;2023-07-13T08:53:02;29.00;40.90
7530;DHT22;3806;52.270;10.544;2023-07-13T08:55:34;28.90;41.20
7530;DHT22;3806;52.270;10.544;2023-07-13T08:58:09;28.90;41.30
7530;DHT22;3806;52.270;10.544;2023-07-13T09:03:20;29.00;41.60
7530;DHT22;3806;52.270;10.544;2023-07-13T09:05:51;29.20;40.90
7530;DHT22;3806;52.270;10.544;2023-07-13T09:08:38;29.00;40.70
7530;DHT22;3806;52.270;10.544;2023-07-13T09:17:28;28.70;41.20
7530;DHT22;3806;52.270;10.544;2023-07-13T09:20:10;28.80;41.50
7530;DHT22;3806;52.270;10.544;2023-07-13T09:22:40;28.90;41.80
7530;DHT22;3806;52.270;10.544;2023-07-13T09:27:47;28.50;41.70
7530;DHT22;3806;52.270;10.544;2023-07-13T09:32:44;28.20;42.10
7530;DHT22;3806;52.270;10.544;2023-07-13T09:35:19;27.90;42.70
7530;DHT22;3806;52.270;10.544;2023-07-13T09:37:46;27.80;43.10
7530;DHT22;3806;52.270;10.544;2023-07-13T09:40:22;28.00;43.40
7530;DHT22;3806;52.270;10.544;2023-07-13T09:42:52;28.30;42.70
7530;DHT22;3806;52.270;10.544;2023-07-13T09:45:27;28.40;42.40
7530;DHT22;3806;52.270;10.544;2023-07-13T09:48:20;28.40;42.30
7530;DHT22;3806;52.270;10.544;2023-07-13T09:50:45;28.50;42.30
7530;DHT22;3806;52.270;10.544;2023-07-13T09:53:15;28.50;42.30
7530;DHT22;3806;52.270;10.544;2023-07-13T09:55:43;28.40;42.50
7530;DHT22;3806;52.270;10.544;2023-07-13T09:58:10;28.40;42.80
7530;DHT22;3806;52.270;10.544;2023-07-13T10:00:37;28.40;42.80
7530;DHT22;3806;52.270;10.544;2023-07-13T10:03:14;28.30;42.30
7530;DHT22;3806;52.270;10.544;2023-07-13T10:05:43;28.30;43.30
7530;DHT22;3806;52.270;10.544;2023-07-13T10:08:17;28.50;43.30
7530;DHT22;3806;52.270;10.544;2023-07-13T10:10:44;28.60;43.10
7530;DHT22;3806;52.270;10.544;2023-07-13T10:13:35;28.70;42.60
7530;DHT22;3806;52.270;10.544;2023-07-13T10:16:04;29.00;42.50
7530;DHT22;3806;52.270;10.544;2023-07-13T10:18:37;29.00;42.50
7530;DHT22;3806;52.270;10.544;2023-07-13T10:21:13;29.20;42.80
7530;DHT22;3806;52.270;10.544;2023-07-13T10:23:39;29.40;42.50
7530;DHT22;3806;52.270;10.544;2023-07-13T10:26:07;29.40;41.90
7530;DHT22;3806;52.270;10.544;2023-07-13T10:28:37;29.30;41.90
7530;DHT22;3806;52.270;10.544;2023-07-13T10:31:07;29.20;42.00
7530;DHT22;3806;52.270;10.544;2023-07-13T10:33:36;29.00;41.50
7530;DHT22;3806;52.270;10.544;2023-07-13T10:36:28;28.90;41.80
7530;DHT22;3806;52.270;10.544;2023-07-13T10:38:57;29.00;42.10
7530;DHT22;3806;52.270;10.544;2023-07-13T10:41:26;29.10;43.00
7530;DHT22;3806;52.270;10.544;2023-07-13T10:43:55;29.30;42.30
7530;DHT22;3806;52.270;10.544;2023-07-13T10:46:26;29.40;41.60
7530;DHT22;3806;52.270;10.544;2023-07-13T10:49:05;29.30;41.50
7530;DHT22;3806;52.270;10.544;2023-07-13T10:51:33;29.40;41.70
7530;DHT22;3806;52.270;10.544;2023-07-13T10:54:21;29.40;41.60
7530;DHT22;3806;52.270;10.544;2023-07-13T10:56:53;29.50;41.70
7530;DHT22;3806;52.270;10.544;2023-07-13T10:59:24;29.60;41.60
7530;DHT22;3806;52.270;10.544;2023-07-13T11:02:08;29.60;41.20
7530;DHT22;3806;52.270;10.544;2023-07-13T11:04:43;29.60;41.40
7530;DHT22;3806;52.270;10.544;2023-07-13T11:07:18;29.40;41.30
7530;DHT22;3806;52.270;10.544;2023-07-13T11:09:45;29.30;42.00
7530;DHT22;3806;52.270;10.544;2023-07-13T11:19:53;29.20;41.20
7530;DHT22;3806;52.270;10.544;2023-07-13T11:23:27;29.00;40.70
7530;DHT22;3806;52.270;10.544;2023-07-13T11:25:31;28.70;41.60
7530;DHT22;3806;52.270;10.544;2023-07-13T11:28:12;28.50;42.60
7530;DHT22;3806;52.270;10.544;2023-07-13T11:30:43;28.40;42.40
7530;DHT22;3806;52.270;10.544;2023-07-13T11:38:39;28.60;42.90
7530;DHT22;3806;52.270;10.544;2023-07-13T11:41:20;28.80;42.50
7530;DHT22;3806;52.270;10.544;2023-07-13T11:43:51;28.90;42.40
7530;DHT22;3806;52.270;10.544;2023-07-13T11:46:26;28.80;41.50
7530;DHT22;3806;52.270;10.544;2023-07-13T11:48:53;28.60;41.40
7530;DHT22;3806;52.270;10.544;2023-07-13T11:51:27;28.50;41.00
7530;DHT22;3806;52.270;10.544;2023-07-13T11:53:54;28.30;42.50
7530;DHT22;3806;52.270;10.544;2023-07-13T11:56:22;28.20;42.50
7530;DHT22;3806;52.270;10.544;2023-07-13T11:58:51;28.40;42.40
7530;DHT22;3806;52.270;10.544;2023-07-13T12:01:29;28.50;41.20
7530;DHT22;3806;52.270;10.544;2023-07-13T12:04:03;28.60;40.70
7530;DHT22;3806;52.270;10.544;2023-07-13T12:06:31;28.50;40.40
7530;DHT22;3806;52.270;10.544;2023-07-13T12:09:02;28.40;40.70
7530;DHT22;3806;52.270;10.544;2023-07-13T12:11:29;28.30;40.40
7530;DHT22;3806;52.270;10.544;2023-07-13T12:13:55;28.40;41.30
7530;DHT22;3806;52.270;10.544;2023-07-13T12:16:27;28.50;41.10
7530;DHT22;3806;52.270;10.544;2023-07-13T12:18:54;28.50;40.40
7530;DHT22;3806;52.270;10.544;2023-07-13T12:21:24;28.60;40.30
7530;DHT22;3806;52.270;10.544;2023-07-13T12:23:52;28.70;40.20
7530;DHT22;3806;52.270;10.544;2023-07-13T12:26:18;28.80;40.00
7530;DHT22;3806;52.270;10.544;2023-07-13T12:28:48;29.00;39.90
7530;DHT22;3806;52.270;10.544;2023-07-13T12:31:36;29.00;38.90
7530;DHT22;3806;52.270;10.544;2023-07-13T12:34:18;28.90;39.10
7530;DHT22;3806;52.270;10.544;2023-07-13T12:37:11;28.90;39.60
7530;DHT22;3806;52.270;10.544;2023-07-13T12:39:44;29.00;39.00
7530;DHT22;3806;52.270;10.544;2023-07-13T12:45:15;29.00;38.80
7530;DHT22;3806;52.270;10.544;2023-07-13T12:47:43;29.10;38.90
7530;DHT22;3806;52.270;10.544;2023-07-13T12:50:15;29.20;39.20
7530;DHT22;3806;52.270;10.544;2023-07-13T12:52:43;29.20;38.70
7530;DHT22;3806;52.270;10.544;2023-07-13T12:55:17;29.10;38.60
7530;DHT22;3806;52.270;10.544;2023-07-13T12:57:50;28.90;37.80
7530;DHT22;3806;52.270;10.544;2023-07-13T13:00:29;28.70;38.80
7530;DHT22;3806;52.270;10.544;2023-07-13T13:03:02;28.60;39.20
7530;DHT22;3806;52.270;10.544;2023-07-13T13:05:29;28.50;38.50
7530;DHT22;3806;52.270;10.544;2023-07-13T13:07:55;28.40;38.40
7530;DHT22;3806;52.270;10.544;2023-07-13T13:10:21;28.30;38.80
7530;DHT22;3806;52.270;10.544;2023-07-13T13:12:47;28.20;39.20
7530;DHT22;3806;52.270;10.544;2023-07-13T13:15:13;28.20;39.80
7530;DHT22;3806;52.270;10.544;2023-07-13T13:17:39;28.20;40.70
7530;DHT22;3806;52.270;10.544;2023-07-13T13:20:17;28.20;40.80
7530;DHT22;3806;52.270;10.544;2023-07-13T13:22:43;28.20;40.50
7530;DHT22;3806;52.270;10.544;2023-07-13T13:25:13;28.10;40.30
7530;DHT22;3806;52.270;10.544;2023-07-13T13:27:41;28.20;40.90
7530;DHT22;3806;52.270;10.544;2023-07-13T13:30:15;28.30;40.80
7530;DHT22;3806;52.270;10.544;2023-07-13T13:32:42;28.30;40.40
7530;DHT22;3806;52.270;10.544;2023-07-13T13:35:19;28.30;40.10
7530;DHT22;3806;52.270;10.544;2023-07-13T13:37:46;28.10;41.00
7530;DHT22;3806;52.270;10.544;2023-07-13T13:40:21;27.90;40.70
7530;DHT22;3806;52.270;10.544;2023-07-13T13:42:48;27.60;40.60
7530;DHT22;3806;52.270;10.544;2023-07-13T13:45:14;27.50;41.10
7530;DHT22;3806;52.270;10.544;2023-07-13T13:47:41;27.40;41.10
7530;DHT22;3806;52.270;10.544;2023-07-13T13:50:15;27.50;41.40
7530;DHT22;3806;52.270;10.544;2023-07-13T13:52:42;27.60;41.60
7530;DHT22;3806;52.270;10.544;2023-07-13T13:55:21;27.50;41.10
7530;DHT22;3806;52.270;10.544;2023-07-13T13:57:49;27.50;41.80
7530;DHT22;3806;52.270;10.544;2023-07-13T14:00:16;27.50;42.00
7530;DHT22;3806;52.270;10.544;2023-07-13T14:02:45;27.40;42.30
7530;DHT22;3806;52.270;10.544;2023-07-13T14:05:22;27.40;42.10
7530;DHT22;3806;52.270;10.544;2023-07-13T14:07:48;27.30;41.70
7530;DHT22;3806;52.270;10.544;2023-07-13T14:10:16;27.10;41.40
7530;DHT22;3806;52.270;10.544;2023-07-13T14:12:44;26.90;41.50
7530;DHT22;3806;52.270;10.544;2023-07-13T14:15:21;26.80;42.50
7530;DHT22;3806;52.270;10.544;2023-07-13T14:17:47;26.50;42.60
7530;DHT22;3806;52.270;10.544;2023-07-13T14:20:16;26.40;43.10
7530;DHT22;3806;52.270;10.544;2023-07-13T14:22:42;26.20;43.50
7530;DHT22;3806;52.270;10.544;2023-07-13T14:25:14;26.10;44.20
7530;DHT22;3806;52.270;10.544;2023-07-13T14:27:41;25.90;45.30
7530;DHT22;3806;52.270;10.544;2023-07-13T14:30:21;25.70;46.90
7530;DHT22;3806;52.270;10.544;2023-07-13T14:32:47;25.60;48.70
7530;DHT22;3806;52.270;10.544;2023-07-13T14:35:16;25.50;49.90
7530;DHT22;3806;52.270;10.544;2023-07-13T14:37:43;25.30;51.00
7530;DHT22;3806;52.270;10.544;2023-07-13T14:42:39;25.10;52.80
7530;DHT22;3806;52.270;10.544;2023-07-13T14:45:11;24.90;53.40
7530;DHT22;3806;52.270;10.544;2023-07-13T14:47:37;24.90;53.90
7530;DHT22;3806;52.270;10.544;2023-07-13T14:50:03;24.80;54.20
7530;DHT22;3806;52.270;10.544;2023-07-13T14:52:30;24.70;54.70
7530;DHT22;3806;52.270;10.544;2023-07-13T14:54:56;24.60;54.90
7530;DHT22;3806;52.270;10.544;2023-07-13T14:57:21;24.40;54.90
7530;DHT22;3806;52.270;10.544;2023-07-13T14:59:48;24.40;55.70
7530;DHT22;3806;52.270;10.544;2023-07-13T15:02:23;24.30;56.10
7530;DHT22;3806;52.270;10.544;2023-07-13T15:04:51;24.20;56.50
7530;DHT22;3806;52.270;10.544;2023-07-13T15:07:17;24.00;57.00
7530;DHT22;3806;52.270;10.544;2023-07-13T15:09:44;23.70;57.80
7530;DHT22;3806;52.270;10.544;2023-07-13T15:12:10;23.50;58.60
7530;DHT22;3806;52.270;10.544;2023-07-13T15:14:36;23.30;59.60
7530;DHT22;3806;52.270;10.544;2023-07-13T15:17:02;23.20;60.40
7530;DHT22;3806;52.270;10.544;2023-07-13T15:19:28;23.10;62.00
7530;DHT22;3806;52.270;10.544;2023-07-13T15:21:57;22.90;65.60
7530;DHT22;3806;52.270;10.544;2023-07-13T15:24:24;22.80;70.50
7530;DHT22;3806;52.270;10.544;2023-07-13T15:26:49;22.70;74.60
7530;DHT22;3806;52.270;10.544;2023-07-13T15:29:16;22.60;78.10
7530;DHT22;3806;52.270;10.544;2023-07-13T15:31:42;22.50;81.70
7530;DHT22;3806;52.270;10.544;2023-07-13T15:34:15;22.50;84.80
7530;DHT22;3806;52.270;10.544;2023-07-13T15:36:41;22.50;88.40
7530;DHT22;3806;52.270;10.544;2023-07-13T15:39:13;22.50;90.20
7530;DHT22;3806;52.270;10.544;2023-07-13T15:41:41;22.60;90.70
7530;DHT22;3806;52.270;10.544;2023-07-13T15:44:22;22.70;90.80
7530;DHT22;3806;52.270;10.544;2023-07-13T15:46:48;22.90;90.80
7530;DHT22;3806;52.270;10.544;2023-07-13T15:49:13;23.00;90.40
7530;DHT22;3806;52.270;10.544;2023-07-13T15:51:39;23.00;90.20
7530;DHT22;3806;52.270;10.544;2023-07-13T15:54:05;23.00;89.20
7530;DHT22;3806;52.270;10.544;2023-07-13T15:56:35;23.00;87.90
7530;DHT22;3806;52.270;10.544;2023-07-13T15:59:02;23.00;87.80
7530;DHT22;3806;52.270;10.544;2023-07-13T16:01:28;22.90;88.10
7530;DHT22;3806;52.270;10.544;2023-07-13T16:03:54;22.90;87.80
7530;DHT22;3806;52.270;10.544;2023-07-13T16:06:28;22.80;87.50
7530;DHT22;3806;52.270;10.544;2023-07-13T16:08:55;22.70;87.30
7530;DHT22;3806;52.270;10.544;2023-07-13T16:11:25;22.60;88.00
7530;DHT22;3806;52.270;10.544;2023-07-13T16:13:52;22.50;88.50
7530;DHT22;3806;52.270;10.544;2023-07-13T16:16:23;22.50;89.60
7530;DHT22;3806;52.270;10.544;2023-07-13T16:18:56;22.50;89.50
7530;DHT22;3806;52.270;10.544;2023-07-13T16:21:27;22.50;89.60
7530;DHT22;3806;52.270;10.544;2023-07-13T16:23:54;22.50;89.70